Time;durP1;ratioP1;P1;durP2;ratioP2;P2;SDS_P1;SDS_P2;PMS_P1;PMS_P2;Temp;Humidity;BMP_temperature;BMP_pressure;BME280_temperature;BME280_humidity;BME280_pressure;Samples;Min_cycle;Max_cycle;Signal;HPM_P1;HPM_P2
2023/09/23 00:01:33;;;;;;;2.17;1.48;;;14.10;91.30;;;;;;5042345;28;20033;-86
2023/09/23 00:03:59;;;;;;;1.65;1.40;;;14.00;91.30;;;;;;5030588;28;20027;-87
2023/09/23 00:06:24;;;;;;;2.08;1.30;;;14.00;91.20;;;;;;5032064;28;20108;-87
2023/09/23 00:08:50;;;;;;;1.25;1.00;;;14.10;91.20;;;;;;5032279;28;20022;-87
2023/09/23 00:11:16;;;;;;;1.25;1.00;;;14.00;91.10;;;;;;5035818;28;20378;-87
2023/09/23 00:13:42;;;;;;;1.75;1.00;;;14.00;91.10;;;;;;5043476;28;20044;-86
2023/09/23 00:16:08;;;;;;;1.48;0.93;;;14.00;91.10;;;;;;5029725;28;20036;-87
2023/09/23 00:18:34;;;;;;;1.52;1.00;;;13.90;91.10;;;;;;5028696;28;20042;-87
2023/09/23 00:21:02;;;;;;;2.15;1.10;;;13.90;91.10;;;;;;5025684;28;20035;-87
2023/09/23 00:23:28;;;;;;;2.72;1.00;;;13.90;91.10;;;;;;5038242;28;20040;-87
2023/09/23 00:25:54;;;;;;;1.65;1.00;;;13.90;91.10;;;;;;5041406;28;20033;-88
2023/09/23 00:28:20;;;;;;;1.25;1.10;;;13.80;91.10;;;;;;5044842;28;20033;-88
2023/09/23 00:30:46;;;;;;;1.30;0.88;;;13.90;91.10;;;;;;5047821;28;20018;-89
2023/09/23 00:33:16;;;;;;;2.25;1.00;;;13.90;91.10;;;;;;5034172;28;20045;-88
2023/09/23 00:35:44;;;;;;;1.83;1.10;;;13.90;91.00;;;;;;5040444;28;20028;-90
2023/09/23 00:38:13;;;;;;;1.35;1.10;;;13.80;91.00;;;;;;5032104;28;20081;-89
2023/09/23 00:40:39;;;;;;;1.67;1.08;;;13.70;91.00;;;;;;5036400;28;20680;-87
2023/09/23 00:43:05;;;;;;;1.50;1.00;;;13.70;91.00;;;;;;5032206;28;20029;-87
2023/09/23 00:45:33;;;;;;;3.40;1.10;;;13.70;91.00;;;;;;5030164;28;20029;-87
2023/09/23 00:47:59;;;;;;;1.85;1.10;;;13.60;91.00;;;;;;5039392;28;20396;-87
2023/09/23 00:50:25;;;;;;;1.75;1.17;;;13.50;91.00;;;;;;5030277;28;20025;-87
2023/09/23 00:52:51;;;;;;;2.50;1.20;;;13.50;91.00;;;;;;5028784;28;20072;-86
2023/09/23 00:55:18;;;;;;;0.80;0.80;;;13.40;91.10;;;;;;5029352;28;20357;-86
2023/09/23 00:58:00;;;;;;;1.95;1.40;;;13.40;91.10;;;;;;5034893;28;20025;-88
2023/09/23 01:00:29;;;;;;;1.30;1.20;;;13.40;91.10;;;;;;5053523;28;20112;-87
2023/09/23 01:02:55;;;;;;;1.27;1.13;;;13.30;91.20;;;;;;5048418;28;20028;-89
2023/09/23 01:05:22;;;;;;;1.55;1.40;;;13.30;91.20;;;;;;5034652;28;20577;-88
2023/09/23 01:07:48;;;;;;;1.65;1.50;;;13.30;91.20;;;;;;5029348;28;20121;-89
2023/09/23 01:10:16;;;;;;;2.33;1.20;;;13.30;91.20;;;;;;5036647;28;20029;-89
2023/09/23 01:12:44;;;;;;;1.40;1.30;;;13.30;91.20;;;;;;5034658;28;20022;-88
2023/09/23 01:15:10;;;;;;;2.85;1.42;;;13.30;91.20;;;;;;5061826;28;20025;-87
2023/09/23 01:17:39;;;;;;;1.60;1.50;;;13.20;91.20;;;;;;5031014;28;20380;-88
2023/09/23 01:20:09;;;;;;;1.67;1.48;;;13.20;91.20;;;;;;5065887;28;20118;-88
2023/09/23 01:22:35;;;;;;;1.70;1.30;;;13.20;91.20;;;;;;5037372;28;20499;-90
2023/09/23 01:25:01;;;;;;;1.80;1.30;;;13.20;91.20;;;;;;5062358;28;20072;-89
2023/09/23 01:27:26;;;;;;;2.33;1.80;;;13.20;91.20;;;;;;5027476;28;20022;-89
2023/09/23 01:29:53;;;;;;;2.40;1.60;;;13.20;91.20;;;;;;5031287;28;20467;-88
2023/09/23 01:32:39;;;;;;;3.75;1.80;;;13.20;91.20;;;;;;5032660;28;20079;-88
2023/09/23 01:35:05;;;;;;;4.38;2.88;;;13.20;91.20;;;;;;5028948;28;20032;-88
2023/09/23 01:37:31;;;;;;;2.65;2.20;;;13.20;91.20;;;;;;5032669;28;20026;-87
2023/09/23 01:39:56;;;;;;;4.95;2.72;;;13.10;91.20;;;;;;5031918;28;20039;-86
2023/09/23 01:42:22;;;;;;;5.63;3.47;;;13.10;91.30;;;;;;5028650;28;20049;-87
2023/09/23 01:44:48;;;;;;;7.88;4.75;;;13.10;91.40;;;;;;5068773;28;20365;-88
2023/09/23 01:47:21;;;;;;;5.90;4.63;;;13.00;91.40;;;;;;5032580;28;20022;-89
2023/09/23 01:49:47;;;;;;;6.10;3.70;;;13.00;91.60;;;;;;5064409;28;20025;-87
2023/09/23 01:52:16;;;;;;;6.82;4.38;;;13.00;91.60;;;;;;5033646;28;20390;-87
2023/09/23 01:54:44;;;;;;;6.03;4.65;;;13.00;91.60;;;;;;5033131;28;20422;-88
2023/09/23 01:57:16;;;;;;;6.53;4.82;;;13.00;91.70;;;;;;5038010;28;20498;-88
2023/09/23 01:59:41;;;;;;;6.78;5.10;;;13.00;91.80;;;;;;5027884;28;20124;-86
2023/09/23 02:02:09;;;;;;;6.45;5.00;;;13.00;91.80;;;;;;5030362;28;20112;-87
2023/09/23 02:04:37;;;;;;;8.13;5.40;;;13.00;91.90;;;;;;5062160;28;20037;-87
2023/09/23 02:07:03;;;;;;;5.90;4.80;;;13.00;92.00;;;;;;5030201;28;20024;-88
2023/09/23 02:09:30;;;;;;;7.28;5.30;;;13.00;92.00;;;;;;5029379;28;20842;-87
2023/09/23 02:11:56;;;;;;;8.90;5.65;;;13.00;92.00;;;;;;5060546;28;20040;-88
2023/09/23 02:14:21;;;;;;;8.20;5.82;;;13.00;92.00;;;;;;5027881;28;20021;-87
2023/09/23 02:16:47;;;;;;;9.88;6.60;;;13.00;92.30;;;;;;5028633;28;20049;-87
2023/09/23 02:19:13;;;;;;;10.70;7.57;;;13.10;92.20;;;;;;5031437;28;20095;-87
2023/09/23 02:21:38;;;;;;;8.90;6.18;;;13.00;92.20;;;;;;5029143;28;20047;-87
2023/09/23 02:24:06;;;;;;;8.27;6.05;;;13.10;92.30;;;;;;5034172;28;20677;-88
2023/09/23 02:26:32;;;;;;;8.02;6.28;;;13.10;92.30;;;;;;5044691;28;20059;-88
2023/09/23 02:28:57;;;;;;;7.65;5.22;;;13.10;92.30;;;;;;5033225;28;20021;-88
2023/09/23 02:31:24;;;;;;;8.77;6.80;;;13.10;92.30;;;;;;5042689;28;20082;-89
2023/09/23 02:33:49;;;;;;;10.40;7.25;;;13.20;92.30;;;;;;5036636;28;20075;-88
2023/09/23 02:36:15;;;;;;;11.07;8.52;;;13.10;92.30;;;;;;5032170;28;20034;-90
2023/09/23 02:38:42;;;;;;;12.35;8.63;;;13.20;92.40;;;;;;5030960;28;20542;-91
2023/09/23 02:41:08;;;;;;;14.20;8.70;;;13.20;92.40;;;;;;5033077;28;20025;-90
2023/09/23 02:43:34;;;;;;;13.65;9.50;;;13.20;92.50;;;;;;5041114;28;20144;-87
2023/09/23 02:46:00;;;;;;;10.65;8.05;;;13.20;92.50;;;;;;5029665;28;20156;-86
2023/09/23 02:48:27;;;;;;;13.02;9.55;;;13.20;92.50;;;;;;5037974;28;20025;-87
2023/09/23 02:50:53;;;;;;;18.02;12.00;;;13.20;92.50;;;;;;5036813;28;20021;-86
2023/09/23 02:53:22;;;;;;;13.63;8.32;;;13.20;92.50;;;;;;5027561;28;20022;-87
2023/09/23 02:55:52;;;;;;;12.02;9.13;;;13.20;92.60;;;;;;5037810;28;20026;-88
2023/09/23 02:58:22;;;;;;;14.30;10.77;;;13.20;92.60;;;;;;5023112;28;20087;-88
2023/09/23 03:00:57;;;;;;;15.20;11.13;;;13.20;92.60;;;;;;5033849;28;20044;-86
2023/09/23 03:03:23;;;;;;;18.27;12.93;;;13.20;92.70;;;;;;5035538;28;20025;-86
2023/09/23 03:05:54;;;;;;;16.52;12.07;;;13.20;92.80;;;;;;5030752;28;20049;-87
2023/09/23 03:08:22;;;;;;;15.63;11.70;;;13.10;92.90;;;;;;5040580;28;20028;-86
2023/09/23 03:10:49;;;;;;;16.95;11.85;;;13.10;93.00;;;;;;5037304;28;20076;-86
2023/09/23 03:13:17;;;;;;;13.95;10.32;;;13.20;93.10;;;;;;5048662;28;20022;-87
2023/09/23 03:15:46;;;;;;;17.05;11.35;;;13.20;93.00;;;;;;5045477;28;20024;-88
2023/09/23 03:18:15;;;;;;;14.57;10.30;;;13.20;93.00;;;;;;5031017;28;20040;-86
2023/09/23 03:20:41;;;;;;;17.02;12.13;;;13.20;93.00;;;;;;5039467;28;20033;-88
2023/09/23 03:23:09;;;;;;;15.95;10.93;;;13.20;93.00;;;;;;5036172;28;20028;-87
2023/09/23 03:25:42;;;;;;;13.27;9.55;;;13.20;93.10;;;;;;5041085;28;20017;-87
2023/09/23 03:28:08;;;;;;;19.20;13.63;;;13.20;93.10;;;;;;5028370;28;20053;-86
2023/09/23 03:30:35;;;;;;;18.08;11.35;;;13.30;93.10;;;;;;5031949;28;20018;-88
2023/09/23 03:33:02;;;;;;;21.35;14.30;;;13.20;93.10;;;;;;5036124;28;20021;-89
2023/09/23 03:35:28;;;;;;;17.20;12.55;;;13.20;93.30;;;;;;5027913;28;20021;-86
2023/09/23 03:37:54;;;;;;;15.02;10.70;;;13.20;93.40;;;;;;5028627;28;20070;-88
2023/09/23 03:40:25;;;;;;;15.80;10.80;;;13.20;93.40;;;;;;5031725;28;20025;-87
2023/09/23 03:42:50;;;;;;;13.77;9.63;;;13.20;93.50;;;;;;5036296;28;20454;-88
2023/09/23 03:45:17;;;;;;;14.80;8.70;;;13.20;93.40;;;;;;5039812;28;20021;-87
2023/09/23 03:47:45;;;;;;;14.05;10.45;;;13.30;93.40;;;;;;5041796;28;20040;-88
2023/09/23 03:50:10;;;;;;;15.13;10.65;;;13.30;93.30;;;;;;5028885;28;20492;-87
2023/09/23 03:52:36;;;;;;;18.83;12.50;;;13.30;93.30;;;;;;5027493;28;20108;-88
2023/09/23 03:55:03;;;;;;;19.73;12.75;;;13.30;93.30;;;;;;5027525;28;20036;-87
2023/09/23 03:57:29;;;;;;;16.98;11.35;;;13.30;93.40;;;;;;5037278;28;20021;-87
2023/09/23 03:59:55;;;;;;;15.48;11.27;;;13.30;93.40;;;;;;5030702;28;20092;-86
2023/09/23 04:02:21;;;;;;;18.13;13.40;;;13.20;93.50;;;;;;5033905;28;20056;-87
2023/09/23 04:04:53;;;;;;;18.58;13.32;;;13.20;93.50;;;;;;5032348;28;20080;-88
2023/09/23 04:07:22;;;;;;;23.08;14.20;;;13.20;93.60;;;;;;5032626;28;20072;-87
2023/09/23 04:09:48;;;;;;;16.30;11.40;;;13.30;93.60;;;;;;5032342;28;20017;-87
2023/09/23 04:12:14;;;;;;;13.73;9.50;;;13.20;93.70;;;;;;5037131;28;20471;-87
2023/09/23 04:14:39;;;;;;;17.73;11.57;;;13.30;93.60;;;;;;5027794;28;20516;-87
2023/09/23 04:17:05;;;;;;;19.67;13.18;;;13.40;93.60;;;;;;5033055;28;20168;-86
2023/09/23 04:19:31;;;;;;;20.70;13.98;;;13.30;93.50;;;;;;5041897;28;20052;-88
2023/09/23 04:21:57;;;;;;;16.35;11.52;;;13.30;93.60;;;;;;5032869;28;20531;-87
2023/09/23 04:24:23;;;;;;;15.15;10.30;;;13.30;93.70;;;;;;5040641;28;20025;-88
2023/09/23 04:26:50;;;;;;;16.98;12.27;;;13.30;94.00;;;;;;5039111;28;20050;-87
2023/09/23 04:29:19;;;;;;;14.15;10.02;;;13.30;93.70;;;;;;5035167;28;20389;-87
2023/09/23 04:31:45;;;;;;;17.92;11.52;;;13.30;93.70;;;;;;5025169;28;20051;-89
2023/09/23 04:34:13;;;;;;;24.30;16.23;;;13.30;93.70;;;;;;5033427;28;20029;-89
2023/09/23 04:36:39;;;;;;;22.55;14.45;;;13.20;93.80;;;;;;5031276;28;20026;-89
2023/09/23 04:39:06;;;;;;;18.70;12.55;;;13.20;93.90;;;;;;5036653;28;20051;-90
2023/09/23 04:41:32;;;;;;;16.40;10.10;;;13.20;94.00;;;;;;5033699;28;20056;-88
2023/09/23 04:43:58;;;;;;;15.93;9.25;;;13.20;94.00;;;;;;5042237;28;20048;-88
2023/09/23 04:46:24;;;;;;;13.95;9.15;;;13.30;93.90;;;;;;5048736;28;20487;-87
2023/09/23 04:48:49;;;;;;;12.13;8.15;;;13.30;93.90;;;;;;5030804;28;20032;-87
2023/09/23 04:51:17;;;;;;;18.00;12.48;;;13.40;93.80;;;;;;5047190;28;20618;-89
2023/09/23 04:53:43;;;;;;;15.82;11.32;;;13.40;93.70;;;;;;5044428;28;20048;-90
2023/09/23 04:56:16;;;;;;;20.33;12.68;;;13.40;93.70;;;;;;5035836;28;20421;-89
2023/09/23 04:58:42;;;;;;;14.65;10.63;;;13.40;93.70;;;;;;5039212;28;20733;-90
2023/09/23 05:01:09;;;;;;;14.93;10.45;;;13.30;93.70;;;;;;5038589;28;20069;-88
2023/09/23 05:03:36;;;;;;;15.82;10.07;;;13.30;93.70;;;;;;5051697;28;20446;-89
2023/09/23 05:06:02;;;;;;;17.00;11.52;;;13.40;94.00;;;;;;5046762;28;20063;-90
2023/09/23 05:08:28;;;;;;;14.13;9.73;;;13.30;93.70;;;;;;5048885;28;20041;-88
2023/09/23 05:10:56;;;;;;;13.07;10.05;;;13.30;93.70;;;;;;5037538;28;20068;-89
2023/09/23 05:13:23;;;;;;;13.13;8.88;;;13.40;93.70;;;;;;5044640;28;20052;-90
2023/09/23 05:15:49;;;;;;;16.63;11.50;;;13.40;93.60;;;;;;5042057;28;20022;-90
2023/09/23 05:18:14;;;;;;;14.40;9.90;;;13.40;93.60;;;;;;5038953;28;20075;-91
2023/09/23 05:20:40;;;;;;;17.48;10.65;;;13.40;93.60;;;;;;5048071;28;20036;-90
2023/09/23 05:23:06;;;;;;;12.23;8.00;;;13.40;93.60;;;;;;5043243;28;20546;-89
2023/09/23 05:25:33;;;;;;;14.65;9.70;;;13.40;93.60;;;;;;5037292;28;20017;-89
2023/09/23 05:27:59;;;;;;;11.75;8.98;;;13.40;93.60;;;;;;5049372;28;20013;-90
2023/09/23 05:30:27;;;;;;;12.32;9.02;;;13.40;93.60;;;;;;5033027;28;20586;-85
2023/09/23 05:32:53;;;;;;;11.57;8.10;;;13.40;93.50;;;;;;5034758;28;20033;-91
2023/09/23 05:35:18;;;;;;;13.90;9.02;;;13.50;93.50;;;;;;5041914;28;20020;-89
2023/09/23 05:37:44;;;;;;;16.15;10.00;;;13.40;93.40;;;;;;5035875;28;20043;-89
2023/09/23 05:40:34;;;;;;;12.10;8.63;;;13.40;93.50;;;;;;5032312;28;20029;-90
2023/09/23 05:42:56;;;;;;;10.40;7.35;;;13.40;93.50;;;;;;5037608;28;20377;-88
2023/09/23 05:45:25;;;;;;;11.77;8.43;;;13.40;93.50;;;;;;5037371;28;20025;-89
2023/09/23 05:47:52;;;;;;;10.95;7.63;;;13.40;93.50;;;;;;5044682;28;20028;-90
2023/09/23 05:50:20;;;;;;;9.65;7.70;;;13.40;93.50;;;;;;5028007;28;20091;-89
2023/09/23 05:52:46;;;;;;;10.95;6.95;;;13.40;93.70;;;;;;5037040;28;20581;-90
2023/09/23 05:55:13;;;;;;;10.05;6.75;;;13.40;93.40;;;;;;5033874;28;20578;-88
2023/09/23 05:57:40;;;;;;;9.82;7.05;;;13.50;93.40;;;;;;5047668;28;20059;-89
2023/09/23 06:00:08;;;;;;;15.45;8.90;;;13.50;93.40;;;;;;5026464;28;20029;-89
2023/09/23 06:02:37;;;;;;;10.98;7.35;;;13.40;93.70;;;;;;5032850;28;20021;-92
2023/09/23 06:05:03;;;;;;;10.55;7.57;;;13.40;93.40;;;;;;5044264;28;20045;-90
2023/09/23 06:07:31;;;;;;;10.88;7.40;;;13.40;93.40;;;;;;5055377;28;20024;-93
2023/09/23 06:10:12;;;;;;;9.20;6.70;;;13.40;93.40;;;;;;5046363;28;20017;-87
2023/09/23 06:12:38;;;;;;;8.15;6.28;;;13.40;93.40;;;;;;5042744;28;20367;-89
2023/09/23 06:15:05;;;;;;;10.55;6.80;;;13.40;93.40;;;;;;5036443;28;20024;-87
2023/09/23 06:17:32;;;;;;;10.68;7.57;;;13.40;93.40;;;;;;5036537;28;20376;-89
2023/09/23 06:20:06;;;;;;;13.05;6.97;;;13.40;93.40;;;;;;5029514;28;20504;-91
2023/09/23 06:22:34;;;;;;;9.80;6.30;;;13.40;93.40;;;;;;5038611;28;20025;-91
2023/09/23 06:25:01;;;;;;;7.35;5.78;;;13.40;93.40;;;;;;5035989;28;20022;-93
2023/09/23 06:27:27;;;;;;;10.13;6.57;;;13.40;93.40;;;;;;5040224;28;20367;-90
2023/09/23 06:29:53;;;;;;;9.45;6.18;;;13.40;93.40;;;;;;5047791;28;20063;-90
2023/09/23 06:32:18;;;;;;;9.10;6.43;;;13.50;93.40;;;;;;5022937;28;20025;-88
